Strona główna
METAR-TAF:

METAR-TAF

Lotnisko :

Port lotniczy Katowice-Pyrzowice

Katowice, Polska

Szerokość geograficzna: 50-28-27N, Długość geograficzna: 019-04-48E, wysokość: 284 m

Aktualna obserwacja pogody

Raport powstał 15 minut temu, godzina 12:00 UTC
Wiatr 4 kt od południowy zachód, zmienny między południe i zachód
Temperatura 13°C
Wilgotność 38%
Ciśnienie 1021 hPa
Widzialność 10 km lub więcej
Brak chmur poniżej 1500 m i brak chmur cumulonimbus

METAR: EPKT 181200Z 22004KT 180V260 CAVOK 13/M01 Q1021

czas: 13:15 (12:15 UTC)

Prognoza

Raport powstał 45 minut temu, godzina 11:30 UTC
Prognoza ważna od 18 godzina 12 UTC do 19 godzina 12 UTC
Wiatr 5 kt od południowy zachód
Widzialność 10 km lub więcej
Brak chmur poniżej 1500 m i brak chmur cumulonimbus

TAF: EPKT 181130Z 1812/1912 22005KT CAVOK

Obserwacja i prognoza pogody dla ponad 4000 lotnisk (raport METAR i TAF).

Dostępne stacje oznaczono żółtymi i czerwonymi punktami na mapie.

Najedź kursorem aby zobaczyć nazwę stacji.

Kliknij aby zobaczyć obserwacje i prognozy pogody.

Aby zmienić mapę: kliknij na zielony przycisk z czarnym krzyżykiem, aby powiększyć; na zielony przycisk z myślnikiem, aby pomniejszyć; na zielone strzałki, aby przejść do map sąsiednich.


METAR-TAF: